Time;durP1;ratioP1;P1;durP2;ratioP2;P2;SDS_P1;SDS_P2;PMS_P1;PMS_P2;Temp;Humidity;BMP_temperature;BMP_pressure;BME280_temperature;BME280_humidity;BME280_pressure;Samples;Min_cycle;Max_cycle;Signal;HPM_P1;HPM_P2
2022/07/30 00:01:58;;;;;;;0.40;0.40;;;16.20;99.90;;;;;;5031909;28;20234;-82
2022/07/30 00:04:23;;;;;;;0.30;0.30;;;16.20;99.90;;;;;;5032837;28;20334;-82
2022/07/30 00:06:49;;;;;;;0.30;0.30;;;16.20;99.90;;;;;;5033438;28;20197;-82
2022/07/30 00:09:15;;;;;;;0.30;0.30;;;16.20;99.90;;;;;;5033245;28;20175;-80
2022/07/30 00:11:40;;;;;;;0.40;0.40;;;16.10;99.90;;;;;;5033924;28;20729;-82
2022/07/30 00:14:06;;;;;;;0.30;0.30;;;16.10;99.90;;;;;;5032040;28;20586;-81
2022/07/30 00:16:32;;;;;;;0.30;0.30;;;16.10;99.90;;;;;;5033682;28;20176;-82
2022/07/30 00:18:57;;;;;;;0.40;0.40;;;16.10;99.90;;;;;;5032879;28;20222;-82
2022/07/30 00:21:23;;;;;;;0.40;0.40;;;16.00;99.90;;;;;;5032983;28;20576;-81
2022/07/30 00:23:48;;;;;;;0.40;0.40;;;16.00;99.90;;;;;;5032246;28;20211;-81
2022/07/30 00:26:14;;;;;;;0.30;0.30;;;16.00;99.90;;;;;;5033669;28;20176;-82
2022/07/30 00:28:39;;;;;;;0.30;0.30;;;15.90;99.90;;;;;;5033955;28;20180;-82
2022/07/30 00:31:05;;;;;;;0.30;0.30;;;15.80;99.90;;;;;;5033785;28;20217;-81
2022/07/30 00:33:30;;;;;;;0.40;0.40;;;15.80;99.90;;;;;;5036672;28;20199;-81
2022/07/30 00:35:56;;;;;;;0.30;0.30;;;15.80;99.90;;;;;;5038525;28;20183;-83
2022/07/30 00:38:21;;;;;;;0.30;0.30;;;15.80;99.90;;;;;;5037452;28;20210;-81
2022/07/30 00:40:48;;;;;;;0.30;0.30;;;15.80;99.90;;;;;;5038000;28;20184;-82
2022/07/30 00:43:15;;;;;;;0.50;0.50;;;15.80;99.90;;;;;;5036681;28;20253;-81
2022/07/30 00:45:41;;;;;;;0.30;0.30;;;15.80;99.90;;;;;;5038239;28;20619;-82
2022/07/30 00:48:07;;;;;;;0.40;0.40;;;15.80;99.90;;;;;;5037461;28;20175;-81
2022/07/30 00:50:33;;;;;;;0.40;0.40;;;15.80;99.90;;;;;;5049335;28;20183;-83
2022/07/30 00:52:59;;;;;;;0.30;0.30;;;15.90;99.90;;;;;;5059334;28;20218;-83
2022/07/30 00:55:24;;;;;;;0.40;0.40;;;16.00;99.90;;;;;;5060612;28;20167;-83
2022/07/30 00:57:50;;;;;;;0.30;0.30;;;16.00;99.90;;;;;;5060714;28;20239;-84
2022/07/30 01:00:16;;;;;;;0.40;0.40;;;16.00;99.90;;;;;;5060707;28;20214;-82
2022/07/30 01:02:42;;;;;;;0.40;0.40;;;16.00;99.90;;;;;;5052541;28;20629;-79
2022/07/30 01:05:08;;;;;;;0.30;0.30;;;15.90;99.90;;;;;;5036750;28;20187;-79
2022/07/30 01:07:34;;;;;;;0.37;0.37;;;15.90;99.90;;;;;;5035926;28;20184;-79
2022/07/30 01:10:00;;;;;;;0.37;0.37;;;15.90;99.90;;;;;;5035322;28;20183;-79
2022/07/30 01:12:26;;;;;;;0.30;0.30;;;16.00;99.90;;;;;;5034444;28;20282;-80
2022/07/30 01:14:54;;;;;;;0.33;0.33;;;16.00;99.90;;;;;;5035140;28;20199;-79
2022/07/30 01:17:20;;;;;;;0.30;0.30;;;15.80;99.90;;;;;;5035247;28;20263;-79
2022/07/30 01:19:47;;;;;;;0.30;0.30;;;15.90;99.90;;;;;;5034690;28;20302;-81
2022/07/30 01:22:24;;;;;;;0.43;0.43;;;15.90;99.90;;;;;;5031534;28;20200;-79
2022/07/30 01:25:13;;;;;;;0.40;0.40;;;16.00;99.90;;;;;;5034028;28;20199;-80
2022/07/30 01:27:49;;;;;;;0.40;0.40;;;15.90;99.90;;;;;;5025564;28;20176;-79
2022/07/30 01:30:22;;;;;;;0.30;0.30;;;15.90;99.90;;;;;;5034776;28;20171;-79
2022/07/30 01:32:50;;;;;;;0.40;0.40;;;16.00;99.90;;;;;;5021839;28;20713;-80
2022/07/30 01:35:18;;;;;;;0.30;0.30;;;15.90;99.90;;;;;;5034510;28;20179;-80
2022/07/30 01:37:45;;;;;;;0.30;0.30;;;16.00;99.90;;;;;;5034943;28;20210;-79
2022/07/30 01:40:13;;;;;;;0.30;0.30;;;15.80;99.90;;;;;;5034207;28;20350;-80
2022/07/30 01:42:39;;;;;;;0.40;0.40;;;15.70;99.90;;;;;;5033042;28;20243;-79
2022/07/30 01:45:07;;;;;;;0.30;0.30;;;15.50;99.90;;;;;;5033919;28;20652;-80
2022/07/30 01:47:35;;;;;;;0.50;0.50;;;15.50;99.90;;;;;;5034636;28;20176;-79
2022/07/30 01:50:04;;;;;;;0.40;0.40;;;15.50;99.90;;;;;;5033778;28;20266;-79
2022/07/30 01:52:32;;;;;;;0.30;0.30;;;15.50;99.90;;;;;;5033275;28;20281;-80
2022/07/30 01:55:00;;;;;;;0.30;0.30;;;15.50;99.90;;;;;;5034473;28;20708;-80
2022/07/30 01:57:27;;;;;;;0.30;0.30;;;15.50;99.90;;;;;;5034699;28;20183;-79
2022/07/30 02:00:00;;;;;;;0.40;0.40;;;15.50;99.90;;;;;;5033964;28;20250;-82
2022/07/30 02:02:26;;;;;;;0.40;0.40;;;15.50;99.90;;;;;;5033377;28;20206;-81
2022/07/30 02:04:52;;;;;;;0.40;0.40;;;15.50;99.90;;;;;;5034336;28;20176;-80
2022/07/30 02:07:32;;;;;;;0.40;0.40;;;15.50;99.90;;;;;;5034733;28;20190;-81
2022/07/30 02:10:06;;;;;;;0.40;0.40;;;15.50;99.90;;;;;;5034012;28;20245;-80
2022/07/30 02:12:35;;;;;;;0.30;0.30;;;15.60;99.90;;;;;;5033050;28;20227;-80
2022/07/30 02:15:09;;;;;;;0.40;0.40;;;15.70;99.90;;;;;;5034197;28;20204;-81
2022/07/30 02:17:42;;;;;;;0.30;0.30;;;15.70;99.90;;;;;;5034503;28;20221;-81
2022/07/30 02:20:10;;;;;;;0.30;0.30;;;15.70;99.90;;;;;;5033751;28;20220;-80
2022/07/30 02:22:39;;;;;;;0.30;0.30;;;15.70;99.90;;;;;;5033191;28;20195;-80
2022/07/30 02:25:07;;;;;;;0.40;0.40;;;15.70;99.90;;;;;;5034083;28;20206;-82
2022/07/30 02:27:35;;;;;;;0.30;0.30;;;15.60;99.90;;;;;;5033966;28;20258;-80
2022/07/30 02:30:02;;;;;;;0.40;0.40;;;15.60;99.90;;;;;;5033394;28;20619;-81
2022/07/30 02:32:33;;;;;;;0.30;0.30;;;15.50;99.90;;;;;;5033102;28;20246;-80
2022/07/30 02:35:04;;;;;;;0.30;0.30;;;15.40;99.90;;;;;;5034276;28;20702;-80
2022/07/30 02:37:31;;;;;;;0.30;0.30;;;15.40;99.90;;;;;;5033844;28;20184;-80
2022/07/30 02:39:58;;;;;;;0.37;0.37;;;15.30;99.90;;;;;;5033314;28;20684;-81
2022/07/30 02:42:25;;;;;;;0.30;0.30;;;15.30;99.90;;;;;;5032365;28;20272;-80
2022/07/30 02:44:52;;;;;;;0.40;0.40;;;15.30;99.90;;;;;;5033468;28;20176;-81
2022/07/30 02:47:19;;;;;;;0.30;0.30;;;15.10;99.90;;;;;;5033908;28;20184;-79
2022/07/30 02:49:47;;;;;;;0.40;0.40;;;15.00;99.90;;;;;;5032941;28;20533;-81
2022/07/30 02:52:15;;;;;;;0.40;0.40;;;15.00;99.90;;;;;;5032533;28;20255;-79
2022/07/30 02:54:42;;;;;;;0.33;0.33;;;15.10;99.90;;;;;;5032618;28;20547;-80
2022/07/30 02:57:09;;;;;;;0.40;0.40;;;15.10;99.90;;;;;;5032929;28;20614;-80
2022/07/30 02:59:40;;;;;;;0.40;0.40;;;15.10;99.90;;;;;;5033301;28;20207;-79
2022/07/30 03:02:08;;;;;;;0.50;0.50;;;15.10;99.90;;;;;;5032176;28;20195;-81
2022/07/30 03:04:35;;;;;;;0.40;0.40;;;15.10;99.90;;;;;;5033324;28;20199;-80
2022/07/30 03:07:01;;;;;;;0.40;0.40;;;15.10;99.90;;;;;;5033575;28;20203;-80
2022/07/30 03:09:28;;;;;;;0.50;0.50;;;15.10;99.90;;;;;;5032773;28;20641;-82
2022/07/30 03:11:54;;;;;;;0.40;0.40;;;15.00;99.90;;;;;;5032211;28;20237;-80
2022/07/30 03:14:20;;;;;;;0.37;0.37;;;15.00;99.90;;;;;;5033003;28;20183;-79
2022/07/30 03:16:51;;;;;;;0.30;0.30;;;14.90;99.90;;;;;;5032961;28;20173;-80
2022/07/30 03:19:21;;;;;;;0.30;0.30;;;14.80;99.90;;;;;;5032606;28;20282;-81
2022/07/30 03:21:48;;;;;;;0.40;0.40;;;14.80;99.90;;;;;;5033077;28;20190;-81
2022/07/30 03:24:16;;;;;;;0.40;0.40;;;14.70;99.90;;;;;;5031859;28;20199;-78
2022/07/30 03:26:44;;;;;;;0.30;0.30;;;14.60;99.90;;;;;;5033425;28;20198;-81
2022/07/30 03:29:12;;;;;;;0.30;0.30;;;14.60;99.90;;;;;;5032617;28;20372;-81
2022/07/30 03:31:39;;;;;;;0.30;0.30;;;14.60;99.90;;;;;;5033266;28;20275;-81
2022/07/30 03:34:07;;;;;;;0.40;0.40;;;14.50;99.90;;;;;;5031880;28;20203;-80
2022/07/30 03:36:34;;;;;;;0.30;0.30;;;14.40;99.90;;;;;;5032877;28;20190;-82
2022/07/30 03:39:02;;;;;;;0.43;0.43;;;14.40;99.90;;;;;;5032780;28;20216;-80
2022/07/30 03:41:29;;;;;;;0.40;0.40;;;14.40;99.90;;;;;;5032900;28;20641;-80
2022/07/30 03:43:55;;;;;;;0.40;0.40;;;14.40;99.90;;;;;;5032239;28;20314;-81
2022/07/30 03:46:21;;;;;;;0.33;0.33;;;14.40;99.90;;;;;;5032883;28;20180;-81
2022/07/30 03:48:47;;;;;;;0.40;0.40;;;14.40;99.90;;;;;;5032960;28;20242;-80
2022/07/30 03:51:13;;;;;;;0.40;0.40;;;14.50;99.90;;;;;;5032193;28;20179;-80
2022/07/30 03:53:40;;;;;;;0.40;0.40;;;14.40;99.90;;;;;;5032245;28;20231;-82
2022/07/30 03:56:07;;;;;;;0.30;0.30;;;14.30;99.90;;;;;;5033445;28;20262;-82
2022/07/30 03:58:32;;;;;;;0.40;0.40;;;14.30;99.90;;;;;;5032961;28;20219;-82
2022/07/30 04:00:58;;;;;;;0.40;0.40;;;14.20;99.90;;;;;;5032627;28;20172;-81
2022/07/30 04:03:25;;;;;;;0.30;0.30;;;14.20;99.90;;;;;;5032039;28;20217;-81
2022/07/30 04:05:51;;;;;;;0.40;0.40;;;14.10;99.90;;;;;;5033256;28;20616;-81
2022/07/30 04:08:17;;;;;;;0.40;0.40;;;14.10;99.90;;;;;;5037593;28;20179;-84
2022/07/30 04:10:42;;;;;;;0.37;0.37;;;14.00;99.90;;;;;;5037225;28;20549;-80
2022/07/30 04:13:08;;;;;;;0.40;0.40;;;14.00;99.90;;;;;;5043200;28;20204;-79
2022/07/30 04:15:44;;;;;;;0.40;0.40;;;14.00;99.90;;;;;;5047131;28;20180;-80
2022/07/30 04:18:12;;;;;;;0.40;0.40;;;14.30;99.90;;;;;;5046771;28;20179;-80
2022/07/30 04:20:42;;;;;;;0.30;0.30;;;14.10;99.90;;;;;;5039101;28;20176;-81
2022/07/30 04:23:09;;;;;;;0.30;0.30;;;14.10;99.90;;;;;;5035861;28;20218;-81
2022/07/30 04:25:35;;;;;;;0.30;0.30;;;14.10;99.90;;;;;;5036173;28;20555;-82
2022/07/30 04:28:02;;;;;;;0.40;0.40;;;14.20;99.90;;;;;;5036956;28;20262;-82
2022/07/30 04:30:28;;;;;;;0.30;0.30;;;14.60;99.90;;;;;;5035895;28;20172;-80
2022/07/30 04:32:54;;;;;;;0.40;0.40;;;14.40;99.90;;;;;;5035306;28;20204;-81
2022/07/30 04:35:30;;;;;;;0.40;0.40;;;14.50;99.90;;;;;;5036732;28;20716;-82
2022/07/30 04:37:56;;;;;;;0.40;0.40;;;14.60;99.90;;;;;;5036785;28;20172;-81
2022/07/30 04:40:21;;;;;;;0.50;0.50;;;14.80;99.90;;;;;;5036368;28;20230;-83
2022/07/30 04:42:47;;;;;;;0.40;0.40;;;15.10;99.90;;;;;;5035494;28;20191;-81
2022/07/30 04:45:13;;;;;;;0.40;0.40;;;15.40;99.90;;;;;;5033535;28;20176;-82
2022/07/30 04:47:38;;;;;;;0.30;0.30;;;15.90;99.90;;;;;;5038359;28;20236;-80
2022/07/30 04:50:05;;;;;;;0.30;0.30;;;16.40;99.90;;;;;;5045318;28;20176;-79
2022/07/30 04:52:32;;;;;;;0.30;0.30;;;16.90;99.90;;;;;;5045360;28;20208;-79
2022/07/30 04:55:02;;;;;;;0.40;0.40;;;17.20;30.50;;;;;;5045948;28;20235;-79
2022/07/30 04:57:30;;;;;;;0.33;0.33;;;17.70;5.30;;;;;;5045363;28;20246;-79
2022/07/30 04:59:56;;;;;;;0.43;0.43;;;17.70;1.00;;;;;;5045011;28;20234;-79
2022/07/30 05:02:25;;;;;;;0.40;0.40;;;17.60;1.00;;;;;;5040331;28;20215;-82
2022/07/30 05:04:52;;;;;;;0.30;0.30;;;17.80;1.00;;;;;;5036226;28;20613;-80
2022/07/30 05:07:20;;;;;;;0.30;0.30;;;18.10;1.00;;;;;;5035943;28;20259;-83
2022/07/30 05:09:46;;;;;;;0.50;0.50;;;18.10;1.00;;;;;;5035380;28;20178;-82
2022/07/30 05:12:12;;;;;;;0.33;0.33;;;18.30;1.00;;;;;;5034218;28;20207;-81
2022/07/30 05:14:37;;;;;;;0.30;0.30;;;18.60;1.00;;;;;;5035723;28;20175;-79
2022/07/30 05:17:03;;;;;;;0.30;0.30;;;18.80;1.00;;;;;;5036318;28;20218;-82
2022/07/30 05:19:29;;;;;;;0.30;0.30;;;18.60;1.00;;;;;;5034365;28;20300;-81
2022/07/30 05:21:54;;;;;;;0.40;0.40;;;18.80;1.00;;;;;;5035982;28;20167;-82
2022/07/30 05:24:20;;;;;;;0.30;0.30;;;18.70;1.00;;;;;;5035874;28;20570;-81
2022/07/30 05:26:46;;;;;;;0.30;0.30;;;18.80;1.00;;;;;;5035691;28;20254;-81
2022/07/30 05:29:12;;;;;;;0.40;0.40;;;18.20;1.00;;;;;;5035527;28;20207;-82
2022/07/30 05:31:38;;;;;;;0.40;0.40;;;17.60;1.00;;;;;;5035909;28;20176;-82
2022/07/30 05:34:04;;;;;;;0.30;0.30;;;17.40;99.60;;;;;;5035021;28;20676;-83
2022/07/30 05:36:30;;;;;;;0.30;0.30;;;17.40;99.90;;;;;;5035588;28;20287;-81
2022/07/30 05:38:55;;;;;;;0.40;0.40;;;17.50;99.90;;;;;;5035085;28;20403;-82
2022/07/30 05:41:21;;;;;;;0.40;0.40;;;17.60;99.90;;;;;;5035534;28;20230;-80
2022/07/30 05:43:46;;;;;;;0.40;0.40;;;17.70;99.90;;;;;;5035330;28;20249;-82
2022/07/30 05:46:12;;;;;;;0.30;0.30;;;17.90;99.90;;;;;;5035898;28;20271;-81
2022/07/30 05:48:38;;;;;;;0.30;0.30;;;17.80;66.70;;;;;;5035433;28;20168;-82
2022/07/30 05:51:04;;;;;;;0.40;0.40;;;17.90;74.90;;;;;;5035326;28;20200;-82
2022/07/30 05:53:30;;;;;;;0.30;0.30;;;17.90;99.90;;;;;;5035841;28;20227;-82
2022/07/30 05:55:56;;;;;;;0.30;0.30;;;17.80;99.90;;;;;;5047264;28;20176;-79
2022/07/30 05:58:22;;;;;;;0.40;0.40;;;18.00;99.90;;;;;;5053315;28;20188;-79
2022/07/30 06:00:47;;;;;;;0.40;0.40;;;18.00;44.50;;;;;;5053015;28;20219;-80
2022/07/30 06:03:13;;;;;;;0.30;0.30;;;17.80;99.90;;;;;;5052590;28;20210;-78
2022/07/30 06:05:38;;;;;;;0.33;0.33;;;17.90;45.70;;;;;;5053570;28;20194;-79
2022/07/30 06:08:04;;;;;;;0.30;0.30;;;17.90;45.70;;;;;;5049093;28;20266;-79
2022/07/30 06:10:30;;;;;;;0.40;0.40;;;17.90;1.00;;;;;;5043346;28;20175;-80
2022/07/30 06:12:57;;;;;;;0.30;0.30;;;18.10;29.00;;;;;;5044302;28;20684;-80
2022/07/30 06:15:22;;;;;;;0.40;0.40;;;18.60;73.90;;;;;;5045134;28;20183;-80
2022/07/30 06:17:48;;;;;;;0.40;0.40;;;18.50;1.00;;;;;;5044901;28;20176;-79
2022/07/30 06:20:15;;;;;;;0.30;0.30;;;18.50;1.00;;;;;;5044852;28;20318;-79
2022/07/30 06:22:41;;;;;;;0.30;0.30;;;18.50;1.00;;;;;;5044256;28;20227;-79
2022/07/30 06:25:07;;;;;;;0.30;0.30;;;18.70;1.00;;;;;;5043653;28;20195;-79
2022/07/30 06:27:35;;;;;;;0.40;0.40;;;18.80;1.00;;;;;;5046102;28;20182;-79
2022/07/30 06:30:01;;;;;;;0.30;0.30;;;18.90;1.00;;;;;;5044252;28;20180;-79
2022/07/30 06:32:26;;;;;;;0.40;0.40;;;19.10;1.00;;;;;;5044545;28;20184;-78
2022/07/30 06:34:52;;;;;;;0.30;0.30;;;19.10;1.00;;;;;;5045247;28;20180;-79
2022/07/30 06:37:17;;;;;;;0.30;0.30;;;19.20;1.00;;;;;;5043336;28;20179;-79
2022/07/30 06:39:43;;;;;;;0.33;0.33;;;19.30;1.00;;;;;;5042867;28;20554;-79
2022/07/30 06:42:08;;;;;;;0.30;0.30;;;19.40;1.00;;;;;;5044589;28;20203;-78
2022/07/30 06:44:34;;;;;;;0.40;0.40;;;19.70;1.00;;;;;;5044996;28;20191;-79
2022/07/30 06:46:59;;;;;;;0.40;0.40;;;19.60;99.90;;;;;;5044573;28;20172;-79
2022/07/30 06:49:25;;;;;;;0.30;0.30;;;19.60;99.90;;;;;;5043891;28;20186;-80
2022/07/30 06:51:51;;;;;;;0.40;0.40;;;19.70;1.00;;;;;;5047343;28;20183;-79
2022/07/30 06:54:16;;;;;;;0.40;0.40;;;19.80;1.00;;;;;;5045601;28;20199;-80
2022/07/30 06:56:42;;;;;;;0.30;0.30;;;20.10;94.60;;;;;;5045303;28;20182;-79
2022/07/30 06:59:08;;;;;;;0.30;0.30;;;20.30;1.00;;;;;;5044254;28;20211;-78
2022/07/30 07:01:33;;;;;;;0.30;0.30;;;20.50;99.90;;;;;;5046484;28;20208;-79
2022/07/30 07:03:59;;;;;;;0.30;0.30;;;20.70;99.90;;;;;;5045446;28;20226;-79
2022/07/30 07:06:24;;;;;;;0.30;0.30;;;20.50;99.90;;;;;;5045188;28;20258;-79
2022/07/30 07:08:50;;;;;;;0.30;0.30;;;20.50;1.00;;;;;;5044867;28;20180;-80
2022/07/30 07:11:15;;;;;;;0.40;0.40;;;20.60;1.00;;;;;;5046550;28;20263;-80
2022/07/30 07:13:41;;;;;;;0.30;0.30;;;20.80;1.00;;;;;;5048209;28;20571;-78
2022/07/30 07:16:06;;;;;;;0.30;0.30;;;20.90;1.00;;;;;;5047917;28;20616;-79
2022/07/30 07:18:32;;;;;;;0.30;0.30;;;21.10;1.00;;;;;;5048518;28;20207;-79
2022/07/30 07:20:57;;;;;;;0.40;0.40;;;21.30;91.40;;;;;;5047548;28;20222;-79
2022/07/30 07:23:23;;;;;;;0.30;0.30;;;21.40;1.00;;;;;;5045257;28;20200;-83
2022/07/30 07:25:48;;;;;;;0.30;0.30;;;21.60;1.00;;;;;;5034221;28;20286;-80
2022/07/30 07:28:14;;;;;;;0.30;0.30;;;21.60;99.90;;;;;;5034577;28;20179;-79
2022/07/30 07:30:43;;;;;;;0.40;0.40;;;21.80;1.00;;;;;;5033934;28;20271;-80
2022/07/30 07:33:09;;;;;;;0.47;0.47;;;22.10;1.00;;;;;;5031362;28;20288;-80
2022/07/30 07:35:35;;;;;;;0.40;0.40;;;22.40;1.00;;;;;;5031655;28;20591;-78
2022/07/30 07:38:01;;;;;;;0.40;0.40;;;22.80;99.90;;;;;;5034241;28;20176;-81
2022/07/30 07:40:26;;;;;;;0.40;0.40;;;22.70;99.90;;;;;;5033274;28;20243;-81
2022/07/30 07:42:52;;;;;;;0.40;0.40;;;23.20;99.90;;;;;;5032277;28;20199;-81
2022/07/30 07:45:18;;;;;;;0.40;0.40;;;23.60;39.20;;;;;;5034387;28;20173;-80
2022/07/30 07:47:45;;;;;;;0.40;0.40;;;23.70;1.00;;;;;;5034549;28;20222;-80
2022/07/30 07:50:13;;;;;;;0.30;0.30;;;24.20;1.00;;;;;;5033688;28;20704;-81
2022/07/30 07:52:39;;;;;;;0.40;0.40;;;24.70;1.00;;;;;;5034920;28;20252;-80
2022/07/30 07:55:06;;;;;;;0.40;0.40;;;25.20;1.00;;;;;;5035625;28;20200;-81
2022/07/30 07:57:41;;;;;;;0.50;0.50;;;25.40;1.00;;;;;;5035979;28;20172;-81
2022/07/30 08:00:09;;;;;;;0.60;0.60;;;25.70;1.00;;;;;;5035825;28;20207;-81
2022/07/30 08:02:34;;;;;;;0.50;0.50;;;26.10;1.00;;;;;;5034706;28;20219;-81
2022/07/30 08:05:00;;;;;;;0.60;0.60;;;26.30;1.00;;;;;;5037637;28;20546;-81
2022/07/30 08:07:25;;;;;;;0.57;0.57;;;26.10;1.00;;;;;;5037874;28;20187;-81
2022/07/30 08:09:51;;;;;;;0.50;0.50;;;26.50;1.00;;;;;;5037035;28;20184;-80
2022/07/30 08:12:16;;;;;;;0.43;0.43;;;26.60;1.00;;;;;;5038523;28;20199;-79
2022/07/30 08:14:42;;;;;;;0.40;0.40;;;27.20;1.00;;;;;;5038971;28;20184;-80
2022/07/30 08:17:08;;;;;;;0.50;0.50;;;27.30;1.00;;;;;;5035143;28;20530;-80
2022/07/30 08:19:33;;;;;;;0.32;0.32;;;27.30;1.00;;;;;;5038641;28;20223;-81
2022/07/30 08:21:59;;;;;;;0.40;0.40;;;27.20;1.00;;;;;;5040351;28;20176;-81
2022/07/30 08:24:25;;;;;;;0.30;0.30;;;27.40;1.00;;;;;;5039342;28;20226;-80
2022/07/30 08:26:50;;;;;;;0.10;0.10;;;27.80;1.00;;;;;;5043834;28;20168;-80
2022/07/30 08:29:16;;;;;;;0.10;0.10;;;27.80;1.00;;;;;;5061303;28;20184;-81
2022/07/30 08:31:42;;;;;;;0.22;0.22;;;27.70;1.00;;;;;;5075901;28;20163;-82
2022/07/30 08:34:07;;;;;;;0.20;0.20;;;27.90;1.00;;;;;;5072844;28;20212;-83
2022/07/30 08:36:33;;;;;;;0.30;0.30;;;28.50;1.00;;;;;;5056639;28;20179;-80
2022/07/30 08:38:58;;;;;;;0.57;0.57;;;27.90;1.00;;;;;;5056725;28;20199;-81
2022/07/30 08:41:24;;;;;;;0.50;0.50;;;27.60;1.00;;;;;;5048391;28;20266;-79
2022/07/30 08:43:50;;;;;;;0.45;0.45;;;28.30;1.00;;;;;;5060757;28;20213;-80
2022/07/30 08:46:17;;;;;;;0.40;0.40;;;28.10;1.00;;;;;;5051114;28;20318;-81
2022/07/30 08:48:43;;;;;;;0.40;0.40;;;27.90;1.00;;;;;;5035542;28;20558;-80
2022/07/30 08:51:09;;;;;;;0.30;0.30;;;27.90;1.00;;;;;;5037026;28;20266;-83
2022/07/30 08:53:35;;;;;;;0.30;0.30;;;28.30;1.00;;;;;;5039940;28;20235;-84
2022/07/30 08:56:02;;;;;;;0.20;0.20;;;29.00;1.00;;;;;;5042429;28;20183;-81
2022/07/30 08:58:30;;;;;;;0.30;0.30;;;28.80;1.00;;;;;;5042485;28;20179;-80
2022/07/30 09:00:56;;;;;;;0.35;0.35;;;29.30;1.00;;;;;;5043565;28;20763;-81
2022/07/30 09:03:22;;;;;;;0.20;0.20;;;29.10;1.00;;;;;;5039225;28;20227;-80
2022/07/30 09:05:47;;;;;;;0.10;0.10;;;29.00;1.00;;;;;;5044003;28;20645;-81
2022/07/30 09:08:13;;;;;;;0.28;0.28;;;29.30;1.00;;;;;;5044291;28;20183;-80
2022/07/30 09:10:41;;;;;;;0.20;0.20;;;29.20;1.00;;;;;;5051862;28;20179;-80
2022/07/30 09:13:29;;;;;;;0.32;0.32;;;29.40;1.00;;;;;;5046736;28;20299;-80
2022/07/30 09:15:55;;;;;;;0.30;0.30;;;28.90;1.00;;;;;;5047607;28;20195;-79
2022/07/30 09:18:32;;;;;;;0.32;0.32;;;28.70;1.00;;;;;;5049304;28;20180;-78
2022/07/30 09:20:59;;;;;;;0.47;0.47;;;27.80;1.00;;;;;;5048334;28;20175;-81
2022/07/30 09:23:25;;;;;;;0.55;0.55;;;27.70;1.00;;;;;;5037464;28;20203;-80
2022/07/30 09:25:50;;;;;;;0.52;0.52;;;28.30;1.00;;;;;;5038883;28;20207;-78
2022/07/30 09:28:27;;;;;;;0.57;0.57;;;28.30;1.00;;;;;;5042923;28;20663;-79
2022/07/30 09:30:55;;;;;;;0.47;0.47;;;27.80;1.00;;;;;;5047838;28;20193;-80
2022/07/30 09:33:38;;;;;;;0.60;0.60;;;27.10;1.00;;;;;;5051326;28;20198;-80
2022/07/30 09:36:05;;;;;;;0.50;0.50;;;28.10;1.00;;;;;;5048730;28;20171;-81
2022/07/30 09:38:51;;;;;;;0.60;0.60;;;29.30;1.00;;;;;;5043406;28;20180;-79
2022/07/30 09:41:21;;;;;;;0.50;0.50;;;29.00;1.00;;;;;;5040540;28;20180;-79
2022/07/30 09:43:50;;;;;;;0.60;0.60;;;28.10;1.00;;;;;;5030348;28;20207;-80
2022/07/30 09:46:17;;;;;;;0.60;0.60;;;28.10;1.00;;;;;;5034768;28;20168;-80
2022/07/30 09:48:44;;;;;;;0.67;0.67;;;27.40;1.00;;;;;;5033119;28;20203;-80
2022/07/30 09:51:10;;;;;;;0.60;0.60;;;26.40;1.00;;;;;;5032973;28;20274;-79
2022/07/30 09:53:51;;;;;;;0.70;0.70;;;27.30;1.00;;;;;;5029302;28;20227;-80
2022/07/30 09:56:25;;;;;;;0.57;0.57;;;27.10;1.00;;;;;;5034026;28;20195;-79
2022/07/30 09:58:51;;;;;;;0.63;0.63;;;26.90;1.00;;;;;;5030581;28;20231;-81
2022/07/30 10:01:17;;;;;;;0.60;0.60;;;28.00;1.00;;;;;;5033809;28;20191;-80
2022/07/30 10:03:42;;;;;;;0.47;0.47;;;29.00;1.00;;;;;;5035191;28;20203;-80
2022/07/30 10:06:09;;;;;;;0.70;0.70;;;29.70;1.00;;;;;;5035770;28;20313;-81
2022/07/30 10:08:45;;;;;;;0.53;0.53;;;30.10;1.00;;;;;;5036420;28;20187;-81
2022/07/30 10:11:14;;;;;;;0.50;0.50;;;30.50;1.00;;;;;;5036319;28;20661;-81
2022/07/30 10:13:41;;;;;;;0.60;0.60;;;29.30;1.00;;;;;;5035930;28;20304;-79
2022/07/30 10:16:08;;;;;;;0.50;0.50;;;28.00;1.00;;;;;;5035289;28;20180;-80
2022/07/30 10:18:34;;;;;;;0.47;0.47;;;28.20;1.00;;;;;;5035384;28;20225;-79
2022/07/30 10:21:01;;;;;;;0.53;0.53;;;28.00;1.00;;;;;;5035882;28;20183;-78
2022/07/30 10:23:28;;;;;;;0.50;0.50;;;27.50;1.00;;;;;;5022088;28;20551;-78
2022/07/30 10:25:57;;;;;;;0.50;0.50;;;26.90;1.00;;;;;;5030193;28;20234;-79
2022/07/30 10:28:23;;;;;;;0.60;0.60;;;27.70;1.00;;;;;;5036610;28;20685;-80
2022/07/30 10:30:51;;;;;;;0.50;0.50;;;28.30;1.00;;;;;;5036084;28;20187;-79
2022/07/30 10:33:17;;;;;;;0.60;0.60;;;28.00;1.00;;;;;;5032378;28;20214;-79
2022/07/30 10:35:43;;;;;;;0.63;0.63;;;28.00;1.00;;;;;;5041446;28;20183;-80
2022/07/30 10:38:11;;;;;;;0.50;0.50;;;27.30;1.00;;;;;;5039750;28;20191;-81
2022/07/30 10:41:00;;;;;;;0.60;0.60;;;27.10;1.00;;;;;;5034693;28;20228;-81
2022/07/30 10:44:14;;;;;;;0.70;0.70;;;27.30;1.00;;;;;;5022932;28;20253;-79
2022/07/30 10:47:01;;;;;;;0.50;0.50;;;28.70;1.00;;;;;;5034945;28;20206;-80
2022/07/30 10:49:27;;;;;;;0.60;0.60;;;27.80;1.00;;;;;;5037416;28;20199;-80
2022/07/30 10:51:56;;;;;;;0.53;0.53;;;28.40;1.00;;;;;;5037201;28;20199;-81
2022/07/30 10:54:43;;;;;;;0.70;0.70;;;29.40;1.00;;;;;;5043499;28;20179;-79
2022/07/30 10:57:14;;;;;;;0.70;0.70;;;29.30;1.00;;;;;;5048482;28;20205;-82
2022/07/30 10:59:54;;;;;;;0.67;0.67;;;29.20;1.00;;;;;;5048683;28;20219;-82
2022/07/30 11:02:23;;;;;;;0.60;0.60;;;29.20;1.00;;;;;;5049847;28;20199;-81
2022/07/30 11:04:50;;;;;;;0.60;0.60;;;29.20;1.00;;;;;;5048203;28;20206;-82
2022/07/30 11:07:22;;;;;;;0.60;0.60;;;29.70;1.00;;;;;;5052231;28;20163;-80
2022/07/30 11:09:49;;;;;;;0.43;0.43;;;30.40;1.00;;;;;;5051336;28;20235;-81
2022/07/30 11:12:14;;;;;;;0.40;0.40;;;29.60;1.00;;;;;;5052758;28;20184;-82
2022/07/30 11:14:46;;;;;;;0.50;0.50;;;29.80;1.00;;;;;;5051160;28;20686;-80
2022/07/30 11:17:16;;;;;;;0.50;0.50;;;29.00;1.00;;;;;;5049333;28;20879;-80
2022/07/30 11:20:01;;;;;;;0.50;0.50;;;27.70;1.00;;;;;;5050112;28;20648;-81
2022/07/30 11:22:37;;;;;;;0.43;0.43;;;27.20;1.00;;;;;;5052172;28;20202;-82
2022/07/30 11:25:04;;;;;;;0.60;0.60;;;27.00;1.00;;;;;;5048112;28;20194;-80
2022/07/30 11:27:40;;;;;;;0.50;0.50;;;27.20;1.00;;;;;;5050663;28;20176;-82
2022/07/30 11:30:30;;;;;;;0.50;0.50;;;27.50;1.00;;;;;;5051125;28;20171;-80
2022/07/30 11:33:15;;;;;;;0.67;0.67;;;28.50;1.00;;;;;;5039606;28;20319;-81
2022/07/30 11:35:42;;;;;;;0.43;0.43;;;28.90;1.00;;;;;;5052475;28;20227;-83
2022/07/30 11:38:14;;;;;;;0.70;0.70;;;28.40;1.00;;;;;;5052154;28;20595;-82
2022/07/30 11:40:49;;;;;;;0.63;0.63;;;27.60;1.00;;;;;;5047653;28;20766;-80
2022/07/30 11:43:28;;;;;;;0.70;0.70;;;27.00;1.00;;;;;;5052496;28;20206;-83
2022/07/30 11:46:18;;;;;;;0.50;0.50;;;27.40;1.00;;;;;;5050459;28;20194;-81
2022/07/30 11:49:07;;;;;;;0.57;0.57;;;27.60;1.00;;;;;;5051889;28;20262;-84
2022/07/30 11:51:44;;;;;;;0.50;0.50;;;27.90;1.00;;;;;;5052700;28;20187;-81
2022/07/30 11:54:10;;;;;;;0.50;0.50;;;28.60;1.00;;;;;;5051823;28;20195;-84
2022/07/30 11:56:46;;;;;;;0.60;0.60;;;28.80;1.00;;;;;;5050245;28;20183;-81
2022/07/30 11:59:11;;;;;;;0.50;0.50;;;28.60;1.00;;;;;;5050672;28;20215;-81
2022/07/30 12:01:37;;;;;;;0.60;0.60;;;28.50;1.00;;;;;;5051487;28;20176;-82
2022/07/30 12:04:04;;;;;;;0.53;0.53;;;29.00;1.00;;;;;;5047767;28;20201;-81
2022/07/30 12:06:30;;;;;;;0.50;0.50;;;29.00;1.00;;;;;;5033445;28;20171;-81
2022/07/30 12:08:57;;;;;;;0.50;0.50;;;29.20;1.00;;;;;;5032864;28;20184;-81
2022/07/30 12:11:24;;;;;;;0.60;0.60;;;29.50;1.00;;;;;;5033214;28;20180;-81
2022/07/30 12:13:58;;;;;;;0.50;0.50;;;29.90;1.00;;;;;;5033824;28;20562;-80
2022/07/30 12:16:25;;;;;;;0.60;0.60;;;30.10;1.00;;;;;;5032256;28;20186;-80
2022/07/30 12:18:50;;;;;;;0.60;0.60;;;30.60;1.00;;;;;;5032474;28;20218;-83
2022/07/30 12:21:16;;;;;;;0.60;0.60;;;30.60;1.00;;;;;;5032543;28;20554;-82
2022/07/30 12:23:56;;;;;;;0.40;0.40;;;30.50;1.00;;;;;;5028841;28;20569;-81
2022/07/30 12:26:27;;;;;;;0.30;0.30;;;29.30;1.00;;;;;;5028368;28;20260;-80
2022/07/30 12:28:54;;;;;;;0.50;0.50;;;29.80;1.00;;;;;;5035940;28;20214;-81
2022/07/30 12:31:20;;;;;;;0.60;0.60;;;30.50;1.00;;;;;;5036528;28;20191;-80
2022/07/30 12:33:46;;;;;;;0.50;0.50;;;30.40;1.00;;;;;;5036411;28;20219;-81
2022/07/30 12:36:29;;;;;;;0.60;0.60;;;30.30;1.00;;;;;;5035766;28;20168;-81
2022/07/30 12:38:56;;;;;;;0.60;0.60;;;30.60;1.00;;;;;;5035749;28;20281;-82
2022/07/30 12:41:39;;;;;;;0.60;0.60;;;30.50;1.00;;;;;;5037113;28;20183;-83
2022/07/30 12:44:04;;;;;;;0.60;0.60;;;30.30;1.00;;;;;;5035164;28;20640;-80
2022/07/30 12:46:40;;;;;;;0.70;0.70;;;30.10;1.00;;;;;;5042545;28;20198;-80
2022/07/30 12:49:07;;;;;;;0.50;0.50;;;29.90;1.00;;;;;;5044208;28;20553;-82
2022/07/30 12:51:36;;;;;;;0.60;0.60;;;30.50;1.00;;;;;;5045048;28;20167;-80
2022/07/30 12:54:13;;;;;;;0.43;0.43;;;30.80;1.00;;;;;;5044175;28;20264;-80
2022/07/30 12:56:39;;;;;;;0.50;0.50;;;30.60;1.00;;;;;;5047209;28;20179;-81
2022/07/30 12:59:20;;;;;;;0.40;0.40;;;30.60;1.00;;;;;;5044847;28;20274;-81